createdAt,value
2024-05-09T00:00:51.390Z,9.68
2024-05-09T00:03:24.514Z,10.98
2024-05-09T00:05:54.862Z,9.98
2024-05-09T00:08:25.299Z,9.60
2024-05-09T00:10:54.760Z,8.40
2024-05-09T00:13:22.027Z,8.73
2024-05-09T00:15:52.385Z,12.07
2024-05-09T00:18:19.783Z,10.38
2024-05-09T00:20:47.283Z,9.65
2024-05-09T00:23:14.796Z,8.70
2024-05-09T00:25:45.509Z,11.50
2024-05-09T00:28:14.212Z,8.93
2024-05-09T00:30:42.537Z,8.65
2024-05-09T00:33:10.965Z,11.50
2024-05-09T00:35:41.738Z,8.48
2024-05-09T00:38:10.898Z,9.02
2024-05-09T00:40:43.465Z,9.90
2024-05-09T00:43:13.110Z,10.15
2024-05-09T00:45:41.667Z,10.00
2024-05-09T00:48:14.141Z,8.30
2024-05-09T00:50:47.027Z,8.98
2024-05-09T00:53:17.698Z,9.15
2024-05-09T00:55:48.592Z,9.57
2024-05-09T00:58:18.612Z,9.02
2024-05-09T01:00:51.079Z,11.57
2024-05-09T01:03:22.114Z,10.32
2024-05-09T01:05:51.357Z,7.85
2024-05-09T01:08:21.899Z,9.13
2024-05-09T01:10:50.378Z,8.75
2024-05-09T01:13:20.796Z,8.15
2024-05-09T01:15:50.291Z,10.20
2024-05-09T01:18:17.916Z,9.93
2024-05-09T01:20:45.759Z,11.57
2024-05-09T01:23:16.795Z,9.90
2024-05-09T01:25:46.131Z,9.15
2024-05-09T01:28:16.542Z,9.63
2024-05-09T01:30:46.949Z,8.98
2024-05-09T01:33:14.560Z,8.20
2024-05-09T01:35:45.351Z,8.85
2024-05-09T01:38:17.608Z,11.90
2024-05-09T01:40:48.489Z,10.02
2024-05-09T01:43:16.831Z,10.35
2024-05-09T01:45:47.145Z,14.23
2024-05-09T01:48:15.593Z,10.15
2024-05-09T01:50:43.644Z,10.40
2024-05-09T01:53:15.160Z,10.25
2024-05-09T01:55:43.222Z,9.52
2024-05-09T01:58:11.105Z,10.25
2024-05-09T02:00:43.092Z,9.45
2024-05-09T02:03:15.715Z,10.05
2024-05-09T02:05:47.235Z,10.25
2024-05-09T02:08:20.848Z,10.38
2024-05-09T02:10:51.641Z,9.63
2024-05-09T02:13:19.137Z,11.65
2024-05-09T02:15:52.556Z,9.10
2024-05-09T02:18:21.154Z,11.05
2024-05-09T02:20:49.576Z,10.65
2024-05-09T02:23:16.998Z,11.43
2024-05-09T02:25:45.368Z,12.93
2024-05-09T02:28:13.766Z,11.18
2024-05-09T02:30:42.293Z,11.40
2024-05-09T02:33:14.006Z,12.70
2024-05-09T02:35:47.690Z,10.48
2024-05-09T02:38:14.934Z,13.32
2024-05-09T02:40:44.356Z,13.43
2024-05-09T02:43:13.217Z,12.57
2024-05-09T02:45:42.695Z,11.20
2024-05-09T02:48:13.964Z,11.07
2024-05-09T02:50:42.185Z,11.85
2024-05-09T02:53:13.153Z,11.30
2024-05-09T02:55:41.919Z,12.07
2024-05-09T02:58:10.203Z,12.05
2024-05-09T03:00:40.963Z,12.38
2024-05-09T03:03:13.153Z,12.52
2024-05-09T03:05:45.716Z,9.93
2024-05-09T03:08:14.769Z,11.63
2024-05-09T03:10:42.293Z,11.82
2024-05-09T03:13:13.267Z,13.68
2024-05-09T03:15:42.163Z,11.55
2024-05-09T03:18:11.430Z,12.18
2024-05-09T03:20:44.447Z,12.55
2024-05-09T03:23:12.221Z,10.68
2024-05-09T03:25:41.688Z,12.20
2024-05-09T03:28:09.065Z,12.82
2024-05-09T03:30:41.878Z,13.52
2024-05-09T03:33:19.423Z,14.13
2024-05-09T03:35:50.755Z,12.77
2024-05-09T03:38:19.127Z,14.57
2024-05-09T03:40:49.044Z,13.82
2024-05-09T03:43:18.785Z,15.60
2024-05-09T03:45:48.726Z,18.85
2024-05-09T03:48:16.465Z,16.40
2024-05-09T03:50:43.980Z,16.48
2024-05-09T03:53:17.249Z,13.30
2024-05-09T03:55:44.613Z,14.05
2024-05-09T03:58:14.609Z,14.25
2024-05-09T04:00:44.933Z,14.63
2024-05-09T04:03:13.723Z,15.88
2024-05-09T04:05:42.872Z,14.48
2024-05-09T04:08:11.322Z,15.05
2024-05-09T04:10:39.139Z,17.17
2024-05-09T04:13:06.555Z,19.58
2024-05-09T04:15:33.877Z,14.68
2024-05-09T04:18:04.349Z,17.80
2024-05-09T04:20:38.316Z,15.40
2024-05-09T04:23:13.391Z,14.00
2024-05-09T04:25:43.710Z,19.42
2024-05-09T04:28:11.215Z,20.83
2024-05-09T04:30:41.379Z,20.33
2024-05-09T04:33:13.774Z,21.20
2024-05-09T04:35:45.511Z,19.02
2024-05-09T04:38:18.723Z,20.33
2024-05-09T04:40:48.065Z,18.75
2024-05-09T04:43:21.749Z,18.30
2024-05-09T04:45:52.154Z,19.17
2024-05-09T04:48:20.693Z,21.15
2024-05-09T04:50:51.123Z,25.55
2024-05-09T04:53:18.780Z,19.35
2024-05-09T04:55:50.192Z,19.58
2024-05-09T04:58:18.450Z,21.60
2024-05-09T05:00:45.994Z,20.50
2024-05-09T05:03:15.865Z,18.42
2024-05-09T05:05:47.282Z,17.73
2024-05-09T05:08:20.538Z,20.45
2024-05-09T05:10:49.115Z,20.15
2024-05-09T05:13:21.450Z,20.42
2024-05-09T05:15:57.383Z,21.52
2024-05-09T05:18:29.057Z,20.77
2024-05-09T05:20:58.929Z,19.40
2024-05-09T05:23:27.292Z,21.33
2024-05-09T05:25:56.586Z,20.95
2024-05-09T05:28:24.317Z,22.77
2024-05-09T05:30:51.606Z,23.45
2024-05-09T05:33:24.738Z,22.02
2024-05-09T05:35:55.212Z,28.10
2024-05-09T05:38:27.504Z,26.73
2024-05-09T05:40:56.954Z,25.27
2024-05-09T05:43:25.333Z,24.90
2024-05-09T05:45:55.722Z,23.38
2024-05-09T05:48:23.198Z,27.05
2024-05-09T05:50:52.743Z,23.70
2024-05-09T05:53:22.098Z,27.20
2024-05-09T05:55:50.493Z,25.52
2024-05-09T05:58:21.852Z,28.60
2024-05-09T06:00:53.887Z,26.35
2024-05-09T06:03:24.432Z,24.92
2024-05-09T06:05:52.790Z,26.00
2024-05-09T06:08:20.171Z,25.58
2024-05-09T06:10:50.697Z,29.05
2024-05-09T06:13:18.084Z,25.35
2024-05-09T06:15:46.574Z,28.13
2024-05-09T06:18:17.145Z,30.23
2024-05-09T06:20:45.880Z,29.30
2024-05-09T06:23:15.278Z,26.67
2024-05-09T06:25:42.890Z,25.42
2024-05-09T06:28:13.439Z,25.08
2024-05-09T06:30:42.577Z,26.42
2024-05-09T06:33:13.814Z,25.30
2024-05-09T06:35:46.259Z,28.83
2024-05-09T06:38:16.793Z,27.00
2024-05-09T06:40:44.759Z,33.72
2024-05-09T06:43:19.851Z,24.52
2024-05-09T06:45:50.236Z,25.77
2024-05-09T06:48:22.720Z,26.20
2024-05-09T06:50:52.134Z,27.75
2024-05-09T06:53:24.063Z,26.48
2024-05-09T06:55:54.580Z,25.25
2024-05-09T06:58:24.944Z,27.33
2024-05-09T07:00:53.226Z,32.08
2024-05-09T07:03:20.686Z,32.38
2024-05-09T07:05:49.339Z,31.65
2024-05-09T07:08:20.288Z,34.30
2024-05-09T07:10:48.792Z,30.10
2024-05-09T07:13:17.378Z,31.10
2024-05-09T07:15:46.626Z,27.42
2024-05-09T07:18:18.751Z,30.02
2024-05-09T07:20:52.932Z,30.38
2024-05-09T07:23:23.437Z,36.58
2024-05-09T07:25:50.799Z,35.10
2024-05-09T07:28:20.974Z,34.85
2024-05-09T07:30:49.280Z,27.90
2024-05-09T07:33:21.946Z,28.42
2024-05-09T07:35:50.659Z,32.85
2024-05-09T07:38:19.138Z,30.48
2024-05-09T07:40:46.891Z,33.72
2024-05-09T07:43:16.245Z,30.80
2024-05-09T07:45:52.148Z,28.48
2024-05-09T07:52:37.656Z,29.70
2024-05-09T07:53:46.417Z,29.55
2024-05-09T07:56:21.813Z,26.95
2024-05-09T07:58:52.929Z,30.67
2024-05-09T08:01:22.497Z,30.48
2024-05-09T08:03:51.160Z,31.00
2024-05-09T08:06:18.634Z,33.67
2024-05-09T08:08:50.218Z,28.42
2024-05-09T08:11:17.925Z,28.80
2024-05-09T08:13:48.300Z,28.27
2024-05-09T08:16:16.726Z,28.88
2024-05-09T08:18:46.116Z,24.90
2024-05-09T08:21:13.507Z,25.83
2024-05-09T08:23:40.814Z,27.15
2024-05-09T08:26:08.157Z,24.83
2024-05-09T08:28:38.386Z,26.40
2024-05-09T08:31:07.332Z,27.02
2024-05-09T08:33:43.521Z,27.65
2024-05-09T08:36:11.118Z,23.42
2024-05-09T08:38:38.387Z,24.08
2024-05-09T08:41:08.299Z,26.20
2024-05-09T08:43:39.894Z,22.42
2024-05-09T08:46:11.620Z,29.83
2024-05-09T08:48:43.499Z,26.75
2024-05-09T08:51:10.905Z,26.40
2024-05-09T08:53:38.213Z,24.23
2024-05-09T08:56:06.999Z,24.95
2024-05-09T08:58:37.650Z,21.05
2024-05-09T09:01:06.210Z,24.50
2024-05-09T09:03:37.729Z,26.48
2024-05-09T09:06:15.487Z,26.42
2024-05-09T09:11:11.073Z,21.52
2024-05-09T09:13:38.939Z,24.67
2024-05-09T09:16:07.548Z,22.08
2024-05-09T09:18:36.078Z,22.45
2024-05-09T09:21:10.120Z,27.48
2024-05-09T09:23:39.135Z,26.05
2024-05-09T09:26:07.445Z,22.85
2024-05-09T09:28:40.826Z,22.13
2024-05-09T09:31:09.216Z,29.25
2024-05-09T09:33:42.731Z,24.50
2024-05-09T09:36:15.868Z,24.58
2024-05-09T09:38:47.327Z,26.67
2024-05-09T09:43:46.888Z,21.88
2024-05-09T09:46:19.673Z,19.10
2024-05-09T09:48:51.262Z,19.63
2024-05-09T09:51:21.558Z,19.67
2024-05-09T09:53:52.704Z,19.40
2024-05-09T09:56:22.000Z,21.77
2024-05-09T09:58:52.427Z,21.95
2024-05-09T10:01:20.829Z,20.33
2024-05-09T10:03:48.553Z,19.20
2024-05-09T10:06:19.034Z,23.70
2024-05-09T10:08:49.847Z,22.63
2024-05-09T10:11:22.376Z,24.00
2024-05-09T10:13:53.727Z,26.00
2024-05-09T10:18:52.035Z,22.52
2024-05-09T10:21:21.087Z,18.42
2024-05-09T10:24:03.519Z,21.05
2024-05-09T10:26:37.987Z,20.65
2024-05-09T10:29:17.388Z,19.40
2024-05-09T10:31:48.304Z,21.27
2024-05-09T10:34:25.039Z,19.52
2024-05-09T10:37:04.269Z,19.05
2024-05-09T10:39:39.091Z,20.63
2024-05-09T10:42:10.402Z,19.80
2024-05-09T10:44:43.030Z,21.42
2024-05-09T10:47:11.622Z,19.23
2024-05-09T10:49:39.634Z,17.40
2024-05-09T10:52:09.234Z,22.30
2024-05-09T10:54:39.928Z,20.45
2024-05-09T10:57:07.633Z,19.88
2024-05-09T10:59:43.191Z,19.55
2024-05-09T11:02:13.758Z,18.05
2024-05-09T11:04:46.427Z,19.38
2024-05-09T11:07:18.721Z,19.30
2024-05-09T11:09:49.721Z,18.83
2024-05-09T11:12:21.392Z,16.38
2024-05-09T11:14:54.681Z,16.10
2024-05-09T11:17:22.147Z,18.75
2024-05-09T11:19:50.972Z,19.13
2024-05-09T11:22:18.344Z,16.70
2024-05-09T11:24:48.823Z,17.05
2024-05-09T11:27:16.239Z,15.27
2024-05-09T11:29:44.955Z,17.42
2024-05-09T11:32:16.807Z,16.42
2024-05-09T11:34:44.261Z,15.32
2024-05-09T11:37:13.448Z,16.52
2024-05-09T11:39:44.285Z,16.80
2024-05-09T11:42:11.669Z,16.98
2024-05-09T11:44:39.966Z,16.08
2024-05-09T11:47:10.460Z,15.55
2024-05-09T11:49:37.718Z,16.10
2024-05-09T11:52:06.315Z,16.70
2024-05-09T11:54:36.773Z,15.57
2024-05-09T11:57:04.331Z,14.82
2024-05-09T11:59:34.676Z,15.45
2024-05-09T12:02:01.990Z,16.88
2024-05-09T12:04:30.471Z,18.08
2024-05-09T12:06:58.060Z,15.52
2024-05-09T12:09:26.707Z,14.75
2024-05-09T12:11:55.115Z,14.98
2024-05-09T12:14:23.525Z,15.88
2024-05-09T12:16:52.922Z,15.10
2024-05-09T12:19:20.368Z,15.85
2024-05-09T12:21:47.701Z,16.85
2024-05-09T12:24:18.513Z,14.93
2024-05-09T12:26:47.348Z,13.95
2024-05-09T12:29:16.762Z,15.98
2024-05-09T12:31:45.074Z,13.88
2024-05-09T12:34:12.473Z,13.63
2024-05-09T12:36:45.592Z,14.20
2024-05-09T12:39:12.904Z,12.57
2024-05-09T12:41:46.318Z,16.10
2024-05-09T12:44:15.621Z,15.48
2024-05-09T12:46:44.916Z,13.85
2024-05-09T12:49:15.668Z,14.05
2024-05-09T12:51:45.472Z,12.85
2024-05-09T12:54:15.955Z,15.50
2024-05-09T12:56:45.279Z,14.88
2024-05-09T12:59:19.063Z,13.75
2024-05-09T13:01:47.297Z,15.43
2024-05-09T13:04:14.819Z,13.55
2024-05-09T13:06:42.402Z,21.80
2024-05-09T13:09:12.047Z,13.07
2024-05-09T13:11:39.461Z,14.10
2024-05-09T13:14:07.737Z,15.60
2024-05-09T13:16:37.154Z,13.10
2024-05-09T13:19:04.561Z,12.98
2024-05-09T13:21:38.055Z,15.45
2024-05-09T13:24:07.013Z,15.65
2024-05-09T13:26:37.286Z,13.35
2024-05-09T13:29:05.575Z,18.38
2024-05-09T13:31:32.957Z,16.17
2024-05-09T13:34:03.370Z,15.20
2024-05-09T13:36:34.152Z,16.42
2024-05-09T13:39:04.668Z,13.00
2024-05-09T13:41:32.039Z,13.10
2024-05-09T13:43:59.468Z,13.82
2024-05-09T13:46:26.813Z,13.95
2024-05-09T13:48:54.379Z,14.80
2024-05-09T13:51:21.716Z,12.77
2024-05-09T13:53:50.089Z,10.85
2024-05-09T13:56:17.334Z,12.55
2024-05-09T13:58:44.716Z,12.45
2024-05-09T14:01:11.965Z,12.95
2024-05-09T14:03:39.826Z,12.60
2024-05-09T14:06:09.409Z,13.98
2024-05-09T14:08:38.444Z,11.80
2024-05-09T14:11:08.891Z,14.07
2024-05-09T14:13:36.222Z,12.20
2024-05-09T14:16:03.920Z,13.25
2024-05-09T14:18:31.303Z,13.13
2024-05-09T14:20:58.693Z,14.73
2024-05-09T14:23:26.058Z,12.18
2024-05-09T14:25:53.717Z,11.32
2024-05-09T14:28:24.862Z,14.15
2024-05-09T14:30:53.525Z,12.05
2024-05-09T14:33:27.115Z,10.77
2024-05-09T14:35:57.699Z,12.25
2024-05-09T14:38:28.499Z,11.45
2024-05-09T14:40:56.976Z,12.32
2024-05-09T14:43:24.613Z,12.07
2024-05-09T14:45:53.775Z,13.60
2024-05-09T14:48:23.317Z,11.35
2024-05-09T14:50:56.707Z,12.65
2024-05-09T14:53:29.770Z,13.82
2024-05-09T14:55:59.199Z,11.88
2024-05-09T14:58:28.633Z,11.82
2024-05-09T15:00:57.015Z,13.35
2024-05-09T15:03:27.410Z,11.98
2024-05-09T15:05:58.788Z,14.63
2024-05-09T15:10:53.550Z,14.45
2024-05-09T15:13:22.155Z,13.40
2024-05-09T15:15:50.111Z,18.90
2024-05-09T15:18:20.909Z,17.25
2024-05-09T15:20:48.876Z,11.90
2024-05-09T15:23:16.392Z,15.43
2024-05-09T15:25:45.053Z,11.40
2024-05-09T15:28:13.483Z,15.82
2024-05-09T15:30:48.382Z,11.63
2024-05-09T15:33:19.054Z,12.95
2024-05-09T15:35:50.889Z,14.75
2024-05-09T15:38:21.386Z,13.07
2024-05-09T15:40:49.912Z,15.55
2024-05-09T15:43:19.489Z,15.75
2024-05-09T15:45:48.923Z,12.75
2024-05-09T15:48:18.430Z,15.40
2024-05-09T15:50:48.939Z,15.07
2024-05-09T15:53:16.197Z,16.58
2024-05-09T15:55:45.521Z,16.98
2024-05-09T15:58:15.311Z,19.10
2024-05-09T16:00:46.989Z,16.75
2024-05-09T16:03:21.365Z,14.40
2024-05-09T16:05:49.099Z,13.93
2024-05-09T16:08:16.942Z,18.45
2024-05-09T16:10:47.459Z,14.32
2024-05-09T16:13:19.855Z,14.40
2024-05-09T16:15:49.754Z,20.42
2024-05-09T16:18:17.233Z,20.45
2024-05-09T16:20:48.286Z,14.98
2024-05-09T16:23:20.238Z,21.63
2024-05-09T16:25:48.495Z,17.70
2024-05-09T16:28:16.779Z,20.73
2024-05-09T16:30:45.246Z,18.67
2024-05-09T16:33:13.935Z,18.42
2024-05-09T16:35:43.318Z,18.88
2024-05-09T16:38:13.750Z,19.90
2024-05-09T16:40:48.037Z,16.15
2024-05-09T16:43:18.802Z,22.40
2024-05-09T16:45:46.359Z,20.48
2024-05-09T16:48:15.099Z,19.38
2024-05-09T16:50:45.440Z,16.17
2024-05-09T16:53:19.566Z,21.08
2024-05-09T16:55:49.928Z,18.75
2024-05-09T16:58:20.488Z,19.13
2024-05-09T17:00:49.018Z,19.42
2024-05-09T17:03:18.633Z,19.15
2024-05-09T17:05:47.286Z,15.05
2024-05-09T17:08:21.217Z,18.48
2024-05-09T17:10:50.033Z,18.77
2024-05-09T17:13:19.305Z,19.70
2024-05-09T17:15:47.369Z,15.23
2024-05-09T17:18:17.096Z,16.63
2024-05-09T17:20:47.575Z,14.50
2024-05-09T17:23:15.055Z,22.00
2024-05-09T17:25:45.668Z,19.45
2024-05-09T17:28:14.300Z,19.52
2024-05-09T17:30:43.920Z,17.45
2024-05-09T17:33:12.839Z,17.60
2024-05-09T17:35:40.896Z,15.32
2024-05-09T17:38:08.816Z,17.58
2024-05-09T17:40:38.595Z,15.63
2024-05-09T17:43:10.904Z,16.73
2024-05-09T17:45:40.884Z,21.80
2024-05-09T17:48:12.252Z,17.80
2024-05-09T17:50:41.210Z,21.10
2024-05-09T17:53:11.547Z,16.73
2024-05-09T17:55:42.482Z,18.50
2024-05-09T17:58:10.481Z,21.10
2024-05-09T18:00:44.050Z,18.90
2024-05-09T18:03:12.661Z,15.02
2024-05-09T18:05:44.863Z,18.27
2024-05-09T18:08:13.371Z,16.60
2024-05-09T18:10:43.199Z,20.05
2024-05-09T18:13:13.686Z,18.55
2024-05-09T18:15:41.732Z,20.00
2024-05-09T18:18:10.910Z,18.45
2024-05-09T18:20:44.034Z,21.63
2024-05-09T18:23:17.849Z,17.95
2024-05-09T18:25:47.043Z,21.42
2024-05-09T18:28:16.231Z,20.45
2024-05-09T18:30:47.262Z,25.52
2024-05-09T18:33:16.525Z,23.80
2024-05-09T18:35:45.225Z,21.65
2024-05-09T18:38:16.234Z,22.15
2024-05-09T18:40:49.927Z,19.77
2024-05-09T18:43:26.186Z,19.65
2024-05-09T18:45:58.817Z,18.25
2024-05-09T18:48:26.137Z,17.60
2024-05-09T18:50:53.374Z,16.88
2024-05-09T18:53:20.736Z,22.10
2024-05-09T18:55:50.101Z,20.33
2024-05-09T18:58:17.986Z,19.20
2024-05-09T19:00:49.231Z,21.25
2024-05-09T19:03:18.014Z,21.50
2024-05-09T19:05:46.335Z,21.88
2024-05-09T19:08:17.026Z,21.92
2024-05-09T19:10:46.116Z,20.65
2024-05-09T19:13:15.306Z,22.90
2024-05-09T19:15:46.038Z,24.35
2024-05-09T19:18:17.409Z,21.00
2024-05-09T19:20:47.906Z,21.73
2024-05-09T19:23:15.324Z,24.67
2024-05-09T19:25:42.548Z,24.40
2024-05-09T19:28:15.938Z,20.92
2024-05-09T19:30:46.281Z,22.40
2024-05-09T19:33:14.264Z,26.23
2024-05-09T19:35:55.210Z,23.67
2024-05-09T19:38:25.541Z,21.60
2024-05-09T19:40:53.856Z,22.13
2024-05-09T19:43:23.352Z,23.52
2024-05-09T19:45:50.704Z,25.58
2024-05-09T19:48:18.294Z,23.80
2024-05-09T19:50:46.316Z,24.58
2024-05-09T19:53:16.694Z,24.45
2024-05-09T19:55:45.018Z,25.50
2024-05-09T19:58:14.462Z,23.50
2024-05-09T20:00:45.102Z,23.30
2024-05-09T20:03:14.659Z,23.63
2024-05-09T20:05:47.137Z,24.08
2024-05-09T20:08:14.908Z,23.85
2024-05-09T20:10:45.374Z,26.45
2024-05-09T20:13:13.977Z,22.40
2024-05-09T20:15:41.457Z,20.33
2024-05-09T20:18:11.134Z,22.75
2024-05-09T20:20:43.040Z,26.30
2024-05-09T20:23:14.031Z,23.83
2024-05-09T20:25:42.488Z,23.13
2024-05-09T20:28:10.782Z,25.20
2024-05-09T20:30:39.461Z,26.00
2024-05-09T20:33:08.635Z,26.13
2024-05-09T20:35:40.187Z,22.00
2024-05-09T20:38:07.800Z,20.13
2024-05-09T20:40:38.768Z,24.75
2024-05-09T20:43:10.776Z,27.25
2024-05-09T20:45:40.235Z,23.20
2024-05-09T20:48:08.914Z,28.65
2024-05-09T20:50:40.178Z,25.00
2024-05-09T20:53:11.568Z,25.05
2024-05-09T20:55:40.712Z,28.70
2024-05-09T20:58:09.121Z,24.98
2024-05-09T21:00:40.558Z,25.33
2024-05-09T21:03:16.368Z,21.55
2024-05-09T21:05:48.524Z,21.70
2024-05-09T21:08:17.205Z,19.95
2024-05-09T21:10:46.645Z,20.05
2024-05-09T21:13:14.005Z,17.75
2024-05-09T21:15:47.415Z,18.95
2024-05-09T21:18:17.950Z,17.17
2024-05-09T21:20:46.121Z,16.33
2024-05-09T21:23:13.349Z,21.17
2024-05-09T21:25:42.656Z,27.60
2024-05-09T21:28:12.196Z,21.30
2024-05-09T21:30:43.127Z,26.23
2024-05-09T21:33:13.867Z,26.60
2024-05-09T21:35:44.912Z,25.90
2024-05-09T21:38:15.693Z,24.17
2024-05-09T21:40:49.032Z,26.70
2024-05-09T21:43:16.413Z,25.05
2024-05-09T21:45:43.834Z,26.17
2024-05-09T21:48:13.744Z,22.88
2024-05-09T21:50:42.357Z,25.80
2024-05-09T21:53:12.291Z,24.25
2024-05-09T21:55:42.147Z,22.83
2024-05-09T21:58:15.958Z,25.02
2024-05-09T22:00:46.464Z,27.17
2024-05-09T22:03:16.255Z,26.30
2024-05-09T22:05:49.800Z,27.35
2024-05-09T22:08:20.111Z,26.95
2024-05-09T22:10:48.576Z,30.13
2024-05-09T22:13:20.471Z,29.80
2024-05-09T22:15:51.053Z,27.45
2024-05-09T22:18:18.518Z,26.45
2024-05-09T22:20:48.778Z,31.17
2024-05-09T22:23:16.214Z,27.55
2024-05-09T22:25:44.655Z,28.27
2024-05-09T22:28:16.142Z,25.25
2024-05-09T22:30:47.456Z,21.48
2024-05-09T22:33:15.506Z,19.67
2024-05-09T22:35:42.914Z,20.65
2024-05-09T22:38:10.269Z,18.58
2024-05-09T22:40:46.103Z,21.10
2024-05-09T22:43:24.571Z,22.58
2024-05-09T22:45:55.171Z,24.35
2024-05-09T22:48:25.822Z,20.30
2024-05-09T22:50:54.152Z,22.33
2024-05-09T22:53:26.057Z,24.55
2024-05-09T22:55:53.848Z,22.33
2024-05-09T22:58:24.428Z,20.52
2024-05-09T23:00:55.038Z,19.25
2024-05-09T23:03:25.916Z,19.27
2024-05-09T23:05:53.441Z,19.10
2024-05-09T23:08:21.940Z,19.77
2024-05-09T23:10:49.460Z,22.30
2024-05-09T23:13:18.135Z,21.55
2024-05-09T23:15:46.461Z,20.35
2024-05-09T23:18:15.040Z,20.58
2024-05-09T23:20:42.410Z,21.67
2024-05-09T23:23:11.452Z,23.95
2024-05-09T23:25:42.765Z,26.10
2024-05-09T23:28:11.804Z,26.58
2024-05-09T23:30:41.471Z,26.23
2024-05-09T23:33:14.815Z,24.25
2024-05-09T23:35:45.251Z,22.50
2024-05-09T23:38:14.584Z,23.10
2024-05-09T23:40:43.500Z,20.08
2024-05-09T23:43:12.655Z,22.80
2024-05-09T23:45:40.764Z,22.67
2024-05-09T23:48:09.113Z,20.33
2024-05-09T23:50:38.514Z,20.70
2024-05-09T23:53:11.146Z,18.58
2024-05-09T23:55:38.882Z,17.63
2024-05-09T23:58:07.619Z,17.80
